sensor_id;sensor_type;location;lat;lon;timestamp;P1;durP1;ratioP1;P2;durP2;ratioP2
5722;SDS011;2886;49.722;8.612;2023-04-09T00:01:04;8.87;;;5.40;;
5722;SDS011;2886;49.722;8.612;2023-04-09T00:03:31;8.00;;;4.83;;
5722;SDS011;2886;49.722;8.612;2023-04-09T00:08:41;8.60;;;5.10;;
5722;SDS011;2886;49.722;8.612;2023-04-09T00:11:06;8.80;;;5.57;;
5722;SDS011;2886;49.722;8.612;2023-04-09T00:13:32;10.60;;;5.60;;
5722;SDS011;2886;49.722;8.612;2023-04-09T00:15:58;9.90;;;5.20;;
5722;SDS011;2886;49.722;8.612;2023-04-09T00:18:23;8.20;;;4.77;;
5722;SDS011;2886;49.722;8.612;2023-04-09T00:20:49;8.10;;;4.50;;
5722;SDS011;2886;49.722;8.612;2023-04-09T00:23:15;7.17;;;4.37;;
5722;SDS011;2886;49.722;8.612;2023-04-09T00:25:41;6.93;;;4.07;;
5722;SDS011;2886;49.722;8.612;2023-04-09T00:28:11;7.97;;;4.70;;
5722;SDS011;2886;49.722;8.612;2023-04-09T00:30:37;7.73;;;3.90;;
5722;SDS011;2886;49.722;8.612;2023-04-09T00:33:02;6.43;;;4.67;;
5722;SDS011;2886;49.722;8.612;2023-04-09T00:35:28;8.90;;;5.13;;
5722;SDS011;2886;49.722;8.612;2023-04-09T00:37:54;7.23;;;4.53;;
5722;SDS011;2886;49.722;8.612;2023-04-09T00:40:20;7.27;;;4.00;;
5722;SDS011;2886;49.722;8.612;2023-04-09T00:42:45;9.13;;;4.80;;
5722;SDS011;2886;49.722;8.612;2023-04-09T00:45:12;6.30;;;4.00;;
5722;SDS011;2886;49.722;8.612;2023-04-09T00:47:38;6.07;;;3.87;;
5722;SDS011;2886;49.722;8.612;2023-04-09T00:50:03;8.60;;;5.07;;
5722;SDS011;2886;49.722;8.612;2023-04-09T00:52:30;6.50;;;4.40;;
5722;SDS011;2886;49.722;8.612;2023-04-09T00:54:58;7.47;;;4.73;;
5722;SDS011;2886;49.722;8.612;2023-04-09T00:57:26;9.73;;;5.20;;
5722;SDS011;2886;49.722;8.612;2023-04-09T00:59:52;10.83;;;5.43;;
5722;SDS011;2886;49.722;8.612;2023-04-09T01:02:18;8.40;;;4.60;;
5722;SDS011;2886;49.722;8.612;2023-04-09T01:04:44;10.73;;;5.83;;
5722;SDS011;2886;49.722;8.612;2023-04-09T01:09:42;10.73;;;5.70;;
5722;SDS011;2886;49.722;8.612;2023-04-09T01:15:25;10.97;;;5.50;;
5722;SDS011;2886;49.722;8.612;2023-04-09T01:17:58;7.47;;;4.50;;
5722;SDS011;2886;49.722;8.612;2023-04-09T01:20:42;9.10;;;5.20;;
5722;SDS011;2886;49.722;8.612;2023-04-09T01:23:15;10.60;;;5.20;;
5722;SDS011;2886;49.722;8.612;2023-04-09T01:28:41;13.33;;;5.33;;
5722;SDS011;2886;49.722;8.612;2023-04-09T01:31:19;8.00;;;5.00;;
5722;SDS011;2886;49.722;8.612;2023-04-09T01:33:49;8.60;;;5.23;;
5722;SDS011;2886;49.722;8.612;2023-04-09T01:36:16;10.07;;;5.10;;
5722;SDS011;2886;49.722;8.612;2023-04-09T01:38:43;8.30;;;4.67;;
5722;SDS011;2886;49.722;8.612;2023-04-09T01:41:13;7.60;;;5.37;;
5722;SDS011;2886;49.722;8.612;2023-04-09T01:43:41;5.50;;;4.23;;
5722;SDS011;2886;49.722;8.612;2023-04-09T01:46:08;8.83;;;5.00;;
5722;SDS011;2886;49.722;8.612;2023-04-09T01:48:34;7.27;;;4.60;;
5722;SDS011;2886;49.722;8.612;2023-04-09T01:51:01;12.60;;;4.37;;
5722;SDS011;2886;49.722;8.612;2023-04-09T01:53:27;8.80;;;4.70;;
5722;SDS011;2886;49.722;8.612;2023-04-09T01:55:55;8.47;;;4.80;;
5722;SDS011;2886;49.722;8.612;2023-04-09T01:58:21;9.20;;;5.23;;
5722;SDS011;2886;49.722;8.612;2023-04-09T02:05:52;11.30;;;5.27;;
5722;SDS011;2886;49.722;8.612;2023-04-09T02:08:22;13.87;;;4.97;;
5722;SDS011;2886;49.722;8.612;2023-04-09T02:10:53;10.40;;;4.70;;
5722;SDS011;2886;49.722;8.612;2023-04-09T02:13:22;10.63;;;5.37;;
5722;SDS011;2886;49.722;8.612;2023-04-09T02:15:51;11.63;;;6.50;;
5722;SDS011;2886;49.722;8.612;2023-04-09T02:18:21;14.17;;;7.23;;
5722;SDS011;2886;49.722;8.612;2023-04-09T02:20:50;14.47;;;7.70;;
5722;SDS011;2886;49.722;8.612;2023-04-09T02:23:16;12.30;;;6.83;;
5722;SDS011;2886;49.722;8.612;2023-04-09T02:25:42;10.77;;;6.00;;
5722;SDS011;2886;49.722;8.612;2023-04-09T02:28:08;10.67;;;5.40;;
5722;SDS011;2886;49.722;8.612;2023-04-09T02:30:34;12.90;;;6.53;;
5722;SDS011;2886;49.722;8.612;2023-04-09T02:32:59;13.70;;;6.70;;
5722;SDS011;2886;49.722;8.612;2023-04-09T02:35:25;14.17;;;6.23;;
5722;SDS011;2886;49.722;8.612;2023-04-09T02:37:50;10.07;;;6.27;;
5722;SDS011;2886;49.722;8.612;2023-04-09T02:40:16;9.37;;;5.50;;
5722;SDS011;2886;49.722;8.612;2023-04-09T02:42:42;15.77;;;6.47;;
5722;SDS011;2886;49.722;8.612;2023-04-09T02:45:07;13.43;;;6.50;;
5722;SDS011;2886;49.722;8.612;2023-04-09T02:47:33;10.83;;;6.10;;
5722;SDS011;2886;49.722;8.612;2023-04-09T02:49:59;10.40;;;6.13;;
5722;SDS011;2886;49.722;8.612;2023-04-09T02:52:24;12.77;;;6.40;;
5722;SDS011;2886;49.722;8.612;2023-04-09T02:54:53;11.47;;;5.27;;
5722;SDS011;2886;49.722;8.612;2023-04-09T02:57:18;11.03;;;5.23;;
5722;SDS011;2886;49.722;8.612;2023-04-09T02:59:44;18.03;;;7.47;;
5722;SDS011;2886;49.722;8.612;2023-04-09T03:02:10;11.33;;;6.20;;
5722;SDS011;2886;49.722;8.612;2023-04-09T03:04:37;10.50;;;5.80;;
5722;SDS011;2886;49.722;8.612;2023-04-09T03:07:02;9.97;;;5.67;;
5722;SDS011;2886;49.722;8.612;2023-04-09T03:09:28;12.90;;;6.67;;
5722;SDS011;2886;49.722;8.612;2023-04-09T03:11:54;17.97;;;6.60;;
5722;SDS011;2886;49.722;8.612;2023-04-09T03:14:27;11.53;;;6.40;;
5722;SDS011;2886;49.722;8.612;2023-04-09T03:16:53;15.87;;;6.87;;
5722;SDS011;2886;49.722;8.612;2023-04-09T03:19:18;12.77;;;6.30;;
5722;SDS011;2886;49.722;8.612;2023-04-09T03:21:44;11.20;;;5.37;;
5722;SDS011;2886;49.722;8.612;2023-04-09T03:24:10;13.77;;;7.20;;
5722;SDS011;2886;49.722;8.612;2023-04-09T03:26:37;11.27;;;6.47;;
5722;SDS011;2886;49.722;8.612;2023-04-09T03:29:03;13.90;;;6.33;;
5722;SDS011;2886;49.722;8.612;2023-04-09T03:31:29;11.43;;;6.40;;
5722;SDS011;2886;49.722;8.612;2023-04-09T03:33:56;12.23;;;6.37;;
5722;SDS011;2886;49.722;8.612;2023-04-09T03:36:21;9.83;;;6.47;;
5722;SDS011;2886;49.722;8.612;2023-04-09T03:38:47;15.77;;;6.20;;
5722;SDS011;2886;49.722;8.612;2023-04-09T03:41:13;9.57;;;5.97;;
5722;SDS011;2886;49.722;8.612;2023-04-09T03:43:38;13.27;;;6.60;;
5722;SDS011;2886;49.722;8.612;2023-04-09T03:46:14;11.80;;;6.90;;
5722;SDS011;2886;49.722;8.612;2023-04-09T03:48:41;9.90;;;5.83;;
5722;SDS011;2886;49.722;8.612;2023-04-09T03:51:13;11.77;;;5.67;;
5722;SDS011;2886;49.722;8.612;2023-04-09T03:53:39;11.50;;;6.00;;
5722;SDS011;2886;49.722;8.612;2023-04-09T03:56:06;11.97;;;6.50;;
5722;SDS011;2886;49.722;8.612;2023-04-09T03:58:32;15.97;;;6.70;;
5722;SDS011;2886;49.722;8.612;2023-04-09T04:00:58;10.87;;;6.30;;
5722;SDS011;2886;49.722;8.612;2023-04-09T04:03:24;13.33;;;6.80;;
5722;SDS011;2886;49.722;8.612;2023-04-09T04:05:50;10.97;;;5.80;;
5722;SDS011;2886;49.722;8.612;2023-04-09T04:08:15;16.70;;;7.40;;
5722;SDS011;2886;49.722;8.612;2023-04-09T04:10:41;13.70;;;6.70;;
5722;SDS011;2886;49.722;8.612;2023-04-09T04:13:07;10.27;;;5.50;;
5722;SDS011;2886;49.722;8.612;2023-04-09T04:15:33;17.57;;;7.10;;
5722;SDS011;2886;49.722;8.612;2023-04-09T04:18:03;9.07;;;6.20;;
5722;SDS011;2886;49.722;8.612;2023-04-09T04:20:31;12.57;;;6.80;;
5722;SDS011;2886;49.722;8.612;2023-04-09T04:22:57;12.40;;;6.40;;
5722;SDS011;2886;49.722;8.612;2023-04-09T04:25:23;22.33;;;7.23;;
5722;SDS011;2886;49.722;8.612;2023-04-09T04:27:49;13.60;;;7.00;;
5722;SDS011;2886;49.722;8.612;2023-04-09T04:30:15;14.93;;;7.43;;
5722;SDS011;2886;49.722;8.612;2023-04-09T04:32:40;12.27;;;6.60;;
5722;SDS011;2886;49.722;8.612;2023-04-09T04:35:06;16.00;;;7.00;;
5722;SDS011;2886;49.722;8.612;2023-04-09T04:37:32;14.03;;;7.30;;
5722;SDS011;2886;49.722;8.612;2023-04-09T04:40:01;11.13;;;6.30;;
5722;SDS011;2886;49.722;8.612;2023-04-09T04:42:28;15.40;;;6.50;;
5722;SDS011;2886;49.722;8.612;2023-04-09T04:44:54;12.90;;;6.90;;
5722;SDS011;2886;49.722;8.612;2023-04-09T04:47:19;13.40;;;6.30;;
5722;SDS011;2886;49.722;8.612;2023-04-09T04:49:45;12.00;;;6.60;;
5722;SDS011;2886;49.722;8.612;2023-04-09T04:52:10;13.27;;;7.03;;
5722;SDS011;2886;49.722;8.612;2023-04-09T04:54:36;16.47;;;7.63;;
5722;SDS011;2886;49.722;8.612;2023-04-09T04:57:02;13.87;;;6.60;;
5722;SDS011;2886;49.722;8.612;2023-04-09T04:59:27;14.60;;;7.03;;
5722;SDS011;2886;49.722;8.612;2023-04-09T05:01:53;11.87;;;6.13;;
5722;SDS011;2886;49.722;8.612;2023-04-09T05:04:19;9.70;;;6.00;;
5722;SDS011;2886;49.722;8.612;2023-04-09T05:06:44;18.40;;;8.13;;
5722;SDS011;2886;49.722;8.612;2023-04-09T05:09:10;11.47;;;6.83;;
5722;SDS011;2886;49.722;8.612;2023-04-09T05:11:36;12.30;;;7.43;;
5722;SDS011;2886;49.722;8.612;2023-04-09T05:14:01;12.00;;;6.30;;
5722;SDS011;2886;49.722;8.612;2023-04-09T05:16:27;16.90;;;6.87;;
5722;SDS011;2886;49.722;8.612;2023-04-09T05:18:53;14.23;;;6.40;;
5722;SDS011;2886;49.722;8.612;2023-04-09T05:21:19;14.77;;;6.73;;
5722;SDS011;2886;49.722;8.612;2023-04-09T05:23:44;12.20;;;6.57;;
5722;SDS011;2886;49.722;8.612;2023-04-09T05:26:10;17.83;;;7.97;;
5722;SDS011;2886;49.722;8.612;2023-04-09T05:28:36;12.73;;;6.93;;
5722;SDS011;2886;49.722;8.612;2023-04-09T05:31:02;11.70;;;7.30;;
5722;SDS011;2886;49.722;8.612;2023-04-09T05:33:28;14.27;;;6.93;;
5722;SDS011;2886;49.722;8.612;2023-04-09T05:35:54;10.53;;;6.37;;
5722;SDS011;2886;49.722;8.612;2023-04-09T05:38:20;10.70;;;6.47;;
5722;SDS011;2886;49.722;8.612;2023-04-09T05:40:46;14.63;;;7.20;;
5722;SDS011;2886;49.722;8.612;2023-04-09T05:43:13;11.80;;;7.17;;
5722;SDS011;2886;49.722;8.612;2023-04-09T05:45:38;13.80;;;7.87;;
5722;SDS011;2886;49.722;8.612;2023-04-09T05:48:04;16.30;;;7.43;;
5722;SDS011;2886;49.722;8.612;2023-04-09T05:50:30;20.57;;;7.50;;
5722;SDS011;2886;49.722;8.612;2023-04-09T05:52:56;20.43;;;8.10;;
5722;SDS011;2886;49.722;8.612;2023-04-09T05:55:21;12.07;;;7.40;;
5722;SDS011;2886;49.722;8.612;2023-04-09T05:57:47;13.43;;;6.80;;
5722;SDS011;2886;49.722;8.612;2023-04-09T06:00:13;14.50;;;7.60;;
5722;SDS011;2886;49.722;8.612;2023-04-09T06:05:09;16.80;;;7.60;;
5722;SDS011;2886;49.722;8.612;2023-04-09T06:07:35;13.50;;;6.80;;
5722;SDS011;2886;49.722;8.612;2023-04-09T06:10:00;15.07;;;6.80;;
5722;SDS011;2886;49.722;8.612;2023-04-09T06:12:26;13.77;;;6.87;;
5722;SDS011;2886;49.722;8.612;2023-04-09T06:14:52;13.00;;;6.90;;
5722;SDS011;2886;49.722;8.612;2023-04-09T06:17:18;17.10;;;8.30;;
5722;SDS011;2886;49.722;8.612;2023-04-09T06:19:43;14.03;;;7.20;;
5722;SDS011;2886;49.722;8.612;2023-04-09T06:22:09;14.20;;;7.40;;
5722;SDS011;2886;49.722;8.612;2023-04-09T06:24:35;16.13;;;7.80;;
5722;SDS011;2886;49.722;8.612;2023-04-09T06:29:51;14.67;;;8.27;;
5722;SDS011;2886;49.722;8.612;2023-04-09T06:32:17;18.63;;;9.70;;
5722;SDS011;2886;49.722;8.612;2023-04-09T06:34:43;18.03;;;9.10;;
5722;SDS011;2886;49.722;8.612;2023-04-09T06:37:08;18.13;;;10.83;;
5722;SDS011;2886;49.722;8.612;2023-04-09T06:39:34;17.47;;;10.33;;
5722;SDS011;2886;49.722;8.612;2023-04-09T06:42:00;16.47;;;9.63;;
5722;SDS011;2886;49.722;8.612;2023-04-09T06:44:25;13.70;;;7.80;;
5722;SDS011;2886;49.722;8.612;2023-04-09T06:46:51;17.00;;;9.00;;
5722;SDS011;2886;49.722;8.612;2023-04-09T06:49:17;24.60;;;10.73;;
5722;SDS011;2886;49.722;8.612;2023-04-09T06:51:42;17.90;;;8.33;;
5722;SDS011;2886;49.722;8.612;2023-04-09T06:54:08;16.27;;;8.90;;
5722;SDS011;2886;49.722;8.612;2023-04-09T06:56:35;18.30;;;8.90;;
5722;SDS011;2886;49.722;8.612;2023-04-09T06:59:00;13.60;;;8.63;;
5722;SDS011;2886;49.722;8.612;2023-04-09T07:01:26;17.20;;;8.93;;
5722;SDS011;2886;49.722;8.612;2023-04-09T07:03:52;16.00;;;8.70;;
5722;SDS011;2886;49.722;8.612;2023-04-09T07:06:17;13.43;;;8.07;;
5722;SDS011;2886;49.722;8.612;2023-04-09T07:08:43;16.00;;;7.47;;
5722;SDS011;2886;49.722;8.612;2023-04-09T07:11:09;18.80;;;10.83;;
5722;SDS011;2886;49.722;8.612;2023-04-09T07:13:34;17.10;;;10.20;;
5722;SDS011;2886;49.722;8.612;2023-04-09T07:16:00;16.70;;;9.30;;
5722;SDS011;2886;49.722;8.612;2023-04-09T07:18:25;13.60;;;8.80;;
5722;SDS011;2886;49.722;8.612;2023-04-09T07:20:52;19.50;;;11.17;;
5722;SDS011;2886;49.722;8.612;2023-04-09T07:23:19;19.07;;;8.80;;
5722;SDS011;2886;49.722;8.612;2023-04-09T07:25:45;16.37;;;8.60;;
5722;SDS011;2886;49.722;8.612;2023-04-09T07:28:11;16.57;;;9.10;;
5722;SDS011;2886;49.722;8.612;2023-04-09T07:30:39;14.20;;;8.17;;
5722;SDS011;2886;49.722;8.612;2023-04-09T07:33:05;16.23;;;8.87;;
5722;SDS011;2886;49.722;8.612;2023-04-09T07:35:30;15.83;;;9.13;;
5722;SDS011;2886;49.722;8.612;2023-04-09T07:37:58;17.83;;;9.07;;
5722;SDS011;2886;49.722;8.612;2023-04-09T07:40:24;17.30;;;8.80;;
5722;SDS011;2886;49.722;8.612;2023-04-09T07:42:50;14.70;;;8.90;;
5722;SDS011;2886;49.722;8.612;2023-04-09T07:45:17;14.50;;;8.90;;
5722;SDS011;2886;49.722;8.612;2023-04-09T07:47:42;16.20;;;8.60;;
5722;SDS011;2886;49.722;8.612;2023-04-09T07:50:08;15.60;;;8.40;;
5722;SDS011;2886;49.722;8.612;2023-04-09T07:52:34;14.43;;;8.63;;
5722;SDS011;2886;49.722;8.612;2023-04-09T07:57:30;16.30;;;8.47;;
5722;SDS011;2886;49.722;8.612;2023-04-09T07:59:57;16.63;;;9.43;;
5722;SDS011;2886;49.722;8.612;2023-04-09T08:02:22;17.70;;;9.33;;
5722;SDS011;2886;49.722;8.612;2023-04-09T08:04:48;19.23;;;9.73;;
5722;SDS011;2886;49.722;8.612;2023-04-09T08:07:14;18.00;;;9.93;;
5722;SDS011;2886;49.722;8.612;2023-04-09T08:09:40;15.27;;;9.37;;
5722;SDS011;2886;49.722;8.612;2023-04-09T08:12:05;19.60;;;10.40;;
5722;SDS011;2886;49.722;8.612;2023-04-09T08:14:31;18.13;;;8.93;;
5722;SDS011;2886;49.722;8.612;2023-04-09T08:16:59;19.20;;;9.47;;
5722;SDS011;2886;49.722;8.612;2023-04-09T08:22:20;17.90;;;9.30;;
5722;SDS011;2886;49.722;8.612;2023-04-09T08:24:51;15.23;;;8.87;;
5722;SDS011;2886;49.722;8.612;2023-04-09T08:27:17;20.43;;;9.53;;
5722;SDS011;2886;49.722;8.612;2023-04-09T08:29:43;18.83;;;10.03;;
5722;SDS011;2886;49.722;8.612;2023-04-09T08:32:10;19.47;;;9.90;;
5722;SDS011;2886;49.722;8.612;2023-04-09T08:34:36;18.07;;;9.63;;
5722;SDS011;2886;49.722;8.612;2023-04-09T08:37:02;17.23;;;9.40;;
5722;SDS011;2886;49.722;8.612;2023-04-09T08:39:27;17.33;;;9.60;;
5722;SDS011;2886;49.722;8.612;2023-04-09T08:41:53;13.53;;;8.73;;
5722;SDS011;2886;49.722;8.612;2023-04-09T08:44:26;17.73;;;9.70;;
5722;SDS011;2886;49.722;8.612;2023-04-09T08:46:52;14.10;;;8.40;;
5722;SDS011;2886;49.722;8.612;2023-04-09T08:49:18;17.33;;;9.23;;
5722;SDS011;2886;49.722;8.612;2023-04-09T08:51:45;15.93;;;8.80;;
5722;SDS011;2886;49.722;8.612;2023-04-09T08:54:13;17.90;;;8.93;;
5722;SDS011;2886;49.722;8.612;2023-04-09T08:56:41;16.20;;;8.80;;
5722;SDS011;2886;49.722;8.612;2023-04-09T08:59:07;10.90;;;7.87;;
5722;SDS011;2886;49.722;8.612;2023-04-09T09:01:33;14.57;;;8.80;;
5722;SDS011;2886;49.722;8.612;2023-04-09T09:04:06;14.27;;;8.40;;
5722;SDS011;2886;49.722;8.612;2023-04-09T09:06:33;12.63;;;7.93;;
5722;SDS011;2886;49.722;8.612;2023-04-09T09:09:07;12.70;;;7.70;;
5722;SDS011;2886;49.722;8.612;2023-04-09T09:11:35;14.70;;;8.20;;
5722;SDS011;2886;49.722;8.612;2023-04-09T09:14:03;13.27;;;8.30;;
5722;SDS011;2886;49.722;8.612;2023-04-09T09:16:30;12.03;;;7.20;;
5722;SDS011;2886;49.722;8.612;2023-04-09T09:18:59;13.20;;;7.50;;
5722;SDS011;2886;49.722;8.612;2023-04-09T09:21:26;11.73;;;7.60;;
5722;SDS011;2886;49.722;8.612;2023-04-09T09:23:52;9.97;;;7.00;;
5722;SDS011;2886;49.722;8.612;2023-04-09T09:26:23;15.43;;;8.50;;
5722;SDS011;2886;49.722;8.612;2023-04-09T09:28:50;13.93;;;8.63;;
5722;SDS011;2886;49.722;8.612;2023-04-09T09:31:17;13.30;;;7.60;;
5722;SDS011;2886;49.722;8.612;2023-04-09T09:33:43;12.37;;;7.53;;
5722;SDS011;2886;49.722;8.612;2023-04-09T09:36:10;14.20;;;8.60;;
5722;SDS011;2886;49.722;8.612;2023-04-09T09:38:49;12.73;;;8.23;;
5722;SDS011;2886;49.722;8.612;2023-04-09T09:41:17;12.00;;;7.23;;
5722;SDS011;2886;49.722;8.612;2023-04-09T09:43:43;12.47;;;7.50;;
5722;SDS011;2886;49.722;8.612;2023-04-09T09:46:10;13.77;;;7.87;;
5722;SDS011;2886;49.722;8.612;2023-04-09T09:48:36;14.17;;;7.70;;
5722;SDS011;2886;49.722;8.612;2023-04-09T09:51:03;12.83;;;7.57;;
5722;SDS011;2886;49.722;8.612;2023-04-09T09:53:37;12.03;;;7.70;;
5722;SDS011;2886;49.722;8.612;2023-04-09T09:56:13;13.40;;;8.10;;
5722;SDS011;2886;49.722;8.612;2023-04-09T09:58:43;11.70;;;7.63;;
5722;SDS011;2886;49.722;8.612;2023-04-09T10:01:15;10.43;;;6.40;;
5722;SDS011;2886;49.722;8.612;2023-04-09T10:03:43;9.73;;;6.97;;
5722;SDS011;2886;49.722;8.612;2023-04-09T10:06:10;14.23;;;8.17;;
5722;SDS011;2886;49.722;8.612;2023-04-09T10:08:37;11.23;;;7.10;;
5722;SDS011;2886;49.722;8.612;2023-04-09T10:11:06;13.43;;;7.53;;
5722;SDS011;2886;49.722;8.612;2023-04-09T10:13:36;12.03;;;6.73;;
5722;SDS011;2886;49.722;8.612;2023-04-09T10:16:04;8.20;;;6.00;;
5722;SDS011;2886;49.722;8.612;2023-04-09T10:18:31;11.83;;;6.73;;
5722;SDS011;2886;49.722;8.612;2023-04-09T10:21:02;9.73;;;6.10;;
5722;SDS011;2886;49.722;8.612;2023-04-09T10:23:39;9.03;;;6.13;;
5722;SDS011;2886;49.722;8.612;2023-04-09T10:26:06;11.50;;;7.47;;
5722;SDS011;2886;49.722;8.612;2023-04-09T10:28:32;12.20;;;6.20;;
5722;SDS011;2886;49.722;8.612;2023-04-09T10:31:02;9.07;;;5.97;;
5722;SDS011;2886;49.722;8.612;2023-04-09T10:33:29;9.20;;;6.33;;
5722;SDS011;2886;49.722;8.612;2023-04-09T10:35:59;9.60;;;6.33;;
5722;SDS011;2886;49.722;8.612;2023-04-09T10:38:46;9.77;;;6.23;;
5722;SDS011;2886;49.722;8.612;2023-04-09T10:41:13;9.97;;;6.23;;
5722;SDS011;2886;49.722;8.612;2023-04-09T10:43:52;12.00;;;6.87;;
5722;SDS011;2886;49.722;8.612;2023-04-09T10:46:28;10.13;;;5.93;;
5722;SDS011;2886;49.722;8.612;2023-04-09T10:49:17;12.17;;;7.17;;
5722;SDS011;2886;49.722;8.612;2023-04-09T10:52:00;8.07;;;5.53;;
5722;SDS011;2886;49.722;8.612;2023-04-09T10:59:35;13.20;;;6.17;;
5722;SDS011;2886;49.722;8.612;2023-04-09T11:02:09;10.50;;;6.50;;
5722;SDS011;2886;49.722;8.612;2023-04-09T11:05:10;9.77;;;6.30;;
5722;SDS011;2886;49.722;8.612;2023-04-09T11:07:53;11.10;;;5.67;;
5722;SDS011;2886;49.722;8.612;2023-04-09T11:10:25;9.47;;;5.80;;
5722;SDS011;2886;49.722;8.612;2023-04-09T11:12:51;9.13;;;6.27;;
5722;SDS011;2886;49.722;8.612;2023-04-09T11:15:18;9.47;;;5.83;;
5722;SDS011;2886;49.722;8.612;2023-04-09T11:17:45;8.50;;;5.80;;
5722;SDS011;2886;49.722;8.612;2023-04-09T11:20:15;8.20;;;5.37;;
5722;SDS011;2886;49.722;8.612;2023-04-09T11:22:44;9.30;;;5.60;;
5722;SDS011;2886;49.722;8.612;2023-04-09T11:25:09;7.17;;;4.63;;
5722;SDS011;2886;49.722;8.612;2023-04-09T11:27:43;7.23;;;5.03;;
5722;SDS011;2886;49.722;8.612;2023-04-09T11:30:10;10.40;;;6.70;;
5722;SDS011;2886;49.722;8.612;2023-04-09T11:32:36;7.87;;;5.43;;
5722;SDS011;2886;49.722;8.612;2023-04-09T11:35:01;6.63;;;4.40;;
5722;SDS011;2886;49.722;8.612;2023-04-09T11:37:27;7.23;;;4.70;;
5722;SDS011;2886;49.722;8.612;2023-04-09T11:39:53;5.80;;;4.40;;
5722;SDS011;2886;49.722;8.612;2023-04-09T11:42:19;8.30;;;5.50;;
5722;SDS011;2886;49.722;8.612;2023-04-09T11:44:49;6.80;;;4.70;;
5722;SDS011;2886;49.722;8.612;2023-04-09T11:47:17;5.30;;;4.57;;
5722;SDS011;2886;49.722;8.612;2023-04-09T11:49:44;7.47;;;4.90;;
5722;SDS011;2886;49.722;8.612;2023-04-09T11:52:11;5.97;;;4.00;;
5722;SDS011;2886;49.722;8.612;2023-04-09T11:54:38;6.40;;;4.37;;
5722;SDS011;2886;49.722;8.612;2023-04-09T11:57:03;7.43;;;5.17;;
5722;SDS011;2886;49.722;8.612;2023-04-09T11:59:29;5.97;;;4.10;;
5722;SDS011;2886;49.722;8.612;2023-04-09T12:01:58;5.67;;;4.47;;
5722;SDS011;2886;49.722;8.612;2023-04-09T12:04:24;5.63;;;4.37;;
5722;SDS011;2886;49.722;8.612;2023-04-09T12:06:50;7.10;;;4.57;;
5722;SDS011;2886;49.722;8.612;2023-04-09T12:09:20;5.17;;;4.00;;
5722;SDS011;2886;49.722;8.612;2023-04-09T12:11:46;5.60;;;4.30;;
5722;SDS011;2886;49.722;8.612;2023-04-09T12:14:12;6.03;;;4.70;;
5722;SDS011;2886;49.722;8.612;2023-04-09T12:16:42;7.03;;;4.80;;
5722;SDS011;2886;49.722;8.612;2023-04-09T12:19:09;7.53;;;4.73;;
5722;SDS011;2886;49.722;8.612;2023-04-09T12:21:51;5.67;;;4.37;;
5722;SDS011;2886;49.722;8.612;2023-04-09T12:24:23;6.23;;;3.67;;
5722;SDS011;2886;49.722;8.612;2023-04-09T12:26:49;5.57;;;3.80;;
5722;SDS011;2886;49.722;8.612;2023-04-09T12:29:16;6.93;;;4.57;;
5722;SDS011;2886;49.722;8.612;2023-04-09T12:31:43;5.30;;;3.77;;
5722;SDS011;2886;49.722;8.612;2023-04-09T12:34:10;5.93;;;4.10;;
5722;SDS011;2886;49.722;8.612;2023-04-09T12:36:37;5.83;;;3.80;;
5722;SDS011;2886;49.722;8.612;2023-04-09T12:39:03;5.63;;;4.30;;
5722;SDS011;2886;49.722;8.612;2023-04-09T12:41:30;5.90;;;3.90;;
5722;SDS011;2886;49.722;8.612;2023-04-09T12:43:55;6.40;;;4.53;;
5722;SDS011;2886;49.722;8.612;2023-04-09T12:46:21;5.60;;;3.93;;
5722;SDS011;2886;49.722;8.612;2023-04-09T12:48:47;4.93;;;3.90;;
5722;SDS011;2886;49.722;8.612;2023-04-09T12:51:12;6.23;;;4.17;;
5722;SDS011;2886;49.722;8.612;2023-04-09T12:53:38;6.30;;;4.40;;
5722;SDS011;2886;49.722;8.612;2023-04-09T12:56:04;5.60;;;4.07;;
5722;SDS011;2886;49.722;8.612;2023-04-09T12:58:31;4.50;;;3.80;;
5722;SDS011;2886;49.722;8.612;2023-04-09T13:00:56;5.47;;;3.80;;
5722;SDS011;2886;49.722;8.612;2023-04-09T13:03:22;6.23;;;3.87;;
5722;SDS011;2886;49.722;8.612;2023-04-09T13:05:49;5.93;;;4.20;;
5722;SDS011;2886;49.722;8.612;2023-04-09T13:08:14;7.77;;;4.13;;
5722;SDS011;2886;49.722;8.612;2023-04-09T13:10:40;3.50;;;3.00;;
5722;SDS011;2886;49.722;8.612;2023-04-09T13:13:06;5.07;;;3.70;;
5722;SDS011;2886;49.722;8.612;2023-04-09T13:15:36;4.20;;;3.73;;
5722;SDS011;2886;49.722;8.612;2023-04-09T13:18:02;6.00;;;3.57;;
5722;SDS011;2886;49.722;8.612;2023-04-09T13:20:28;6.20;;;4.40;;
5722;SDS011;2886;49.722;8.612;2023-04-09T13:22:54;4.90;;;3.77;;
5722;SDS011;2886;49.722;8.612;2023-04-09T13:25:20;6.33;;;4.10;;
5722;SDS011;2886;49.722;8.612;2023-04-09T13:27:46;5.27;;;3.60;;
5722;SDS011;2886;49.722;8.612;2023-04-09T13:30:11;3.40;;;3.10;;
5722;SDS011;2886;49.722;8.612;2023-04-09T13:32:37;4.80;;;4.17;;
5722;SDS011;2886;49.722;8.612;2023-04-09T13:35:03;5.03;;;3.50;;
5722;SDS011;2886;49.722;8.612;2023-04-09T13:37:30;4.77;;;3.67;;
5722;SDS011;2886;49.722;8.612;2023-04-09T13:39:55;5.60;;;3.70;;
5722;SDS011;2886;49.722;8.612;2023-04-09T13:42:21;4.53;;;3.30;;
5722;SDS011;2886;49.722;8.612;2023-04-09T13:44:46;6.83;;;3.20;;
5722;SDS011;2886;49.722;8.612;2023-04-09T13:47:12;3.60;;;3.30;;
5722;SDS011;2886;49.722;8.612;2023-04-09T13:49:40;3.53;;;2.93;;
5722;SDS011;2886;49.722;8.612;2023-04-09T13:52:06;5.23;;;3.70;;
5722;SDS011;2886;49.722;8.612;2023-04-09T13:54:32;4.53;;;2.97;;
5722;SDS011;2886;49.722;8.612;2023-04-09T13:56:59;3.70;;;3.00;;
5722;SDS011;2886;49.722;8.612;2023-04-09T13:59:24;3.83;;;3.20;;
5722;SDS011;2886;49.722;8.612;2023-04-09T14:01:50;3.50;;;2.67;;
5722;SDS011;2886;49.722;8.612;2023-04-09T14:04:16;4.73;;;2.83;;
5722;SDS011;2886;49.722;8.612;2023-04-09T14:06:43;4.23;;;3.20;;
5722;SDS011;2886;49.722;8.612;2023-04-09T14:09:09;3.70;;;3.37;;
5722;SDS011;2886;49.722;8.612;2023-04-09T14:11:35;3.40;;;2.77;;
5722;SDS011;2886;49.722;8.612;2023-04-09T14:14:01;4.40;;;3.43;;
5722;SDS011;2886;49.722;8.612;2023-04-09T14:16:27;9.43;;;3.20;;
5722;SDS011;2886;49.722;8.612;2023-04-09T14:18:54;4.50;;;3.10;;
5722;SDS011;2886;49.722;8.612;2023-04-09T14:21:22;3.97;;;2.77;;
5722;SDS011;2886;49.722;8.612;2023-04-09T14:23:48;5.10;;;3.10;;
5722;SDS011;2886;49.722;8.612;2023-04-09T14:26:14;3.77;;;3.33;;
5722;SDS011;2886;49.722;8.612;2023-04-09T14:28:40;2.70;;;2.30;;
5722;SDS011;2886;49.722;8.612;2023-04-09T14:31:07;7.10;;;4.13;;
5722;SDS011;2886;49.722;8.612;2023-04-09T14:33:33;5.17;;;3.80;;
5722;SDS011;2886;49.722;8.612;2023-04-09T14:35:58;3.17;;;2.87;;
5722;SDS011;2886;49.722;8.612;2023-04-09T14:38:24;5.77;;;2.97;;
5722;SDS011;2886;49.722;8.612;2023-04-09T14:40:50;4.87;;;3.93;;
5722;SDS011;2886;49.722;8.612;2023-04-09T14:43:15;8.20;;;3.67;;
5722;SDS011;2886;49.722;8.612;2023-04-09T14:45:41;3.80;;;3.10;;
5722;SDS011;2886;49.722;8.612;2023-04-09T14:48:07;3.93;;;3.43;;
5722;SDS011;2886;49.722;8.612;2023-04-09T14:50:33;3.70;;;3.30;;
5722;SDS011;2886;49.722;8.612;2023-04-09T14:53:00;4.10;;;3.20;;
5722;SDS011;2886;49.722;8.612;2023-04-09T14:55:27;4.63;;;3.50;;
5722;SDS011;2886;49.722;8.612;2023-04-09T14:57:53;5.10;;;3.70;;
5722;SDS011;2886;49.722;8.612;2023-04-09T15:00:19;4.33;;;3.67;;
5722;SDS011;2886;49.722;8.612;2023-04-09T15:02:45;3.40;;;2.80;;
5722;SDS011;2886;49.722;8.612;2023-04-09T15:05:11;3.77;;;3.03;;
5722;SDS011;2886;49.722;8.612;2023-04-09T15:07:38;3.17;;;2.80;;
5722;SDS011;2886;49.722;8.612;2023-04-09T15:10:03;3.27;;;2.77;;
5722;SDS011;2886;49.722;8.612;2023-04-09T15:12:30;2.67;;;2.43;;
5722;SDS011;2886;49.722;8.612;2023-04-09T15:14:56;3.20;;;2.90;;
5722;SDS011;2886;49.722;8.612;2023-04-09T15:17:22;2.63;;;2.30;;
5722;SDS011;2886;49.722;8.612;2023-04-09T15:19:48;3.20;;;2.70;;
5722;SDS011;2886;49.722;8.612;2023-04-09T15:22:14;3.87;;;2.93;;
5722;SDS011;2886;49.722;8.612;2023-04-09T15:24:40;2.83;;;2.23;;
5722;SDS011;2886;49.722;8.612;2023-04-09T15:27:06;3.93;;;2.37;;
5722;SDS011;2886;49.722;8.612;2023-04-09T15:29:32;2.67;;;2.33;;
5722;SDS011;2886;49.722;8.612;2023-04-09T15:31:57;3.20;;;2.23;;
5722;SDS011;2886;49.722;8.612;2023-04-09T15:34:23;2.77;;;2.13;;
5722;SDS011;2886;49.722;8.612;2023-04-09T15:36:50;3.00;;;2.60;;
5722;SDS011;2886;49.722;8.612;2023-04-09T15:39:16;3.80;;;2.80;;